sensor_id;sensor_type;location;lat;lon;timestamp;P1;durP1;ratioP1;P2;durP2;ratioP2
71696;SDS011;59528;59.082;37.926;2022-10-23T00:01:15;3.03;;;1.80;;
71696;SDS011;59528;59.082;37.926;2022-10-23T00:03:41;2.33;;;1.63;;
71696;SDS011;59528;59.082;37.926;2022-10-23T00:06:07;2.30;;;1.70;;
71696;SDS011;59528;59.082;37.926;2022-10-23T00:08:33;2.80;;;1.83;;
71696;SDS011;59528;59.082;37.926;2022-10-23T00:10:59;3.30;;;1.70;;
71696;SDS011;59528;59.082;37.926;2022-10-23T00:13:25;2.67;;;1.83;;
71696;SDS011;59528;59.082;37.926;2022-10-23T00:15:50;2.00;;;1.60;;
71696;SDS011;59528;59.082;37.926;2022-10-23T00:18:16;4.70;;;1.70;;
71696;SDS011;59528;59.082;37.926;2022-10-23T00:20:41;2.50;;;1.90;;
71696;SDS011;59528;59.082;37.926;2022-10-23T00:23:07;2.23;;;1.70;;
71696;SDS011;59528;59.082;37.926;2022-10-23T00:25:33;2.00;;;1.60;;
71696;SDS011;59528;59.082;37.926;2022-10-23T00:27:58;2.00;;;1.40;;
71696;SDS011;59528;59.082;37.926;2022-10-23T00:30:25;2.30;;;1.60;;
71696;SDS011;59528;59.082;37.926;2022-10-23T00:32:50;1.70;;;1.30;;
71696;SDS011;59528;59.082;37.926;2022-10-23T00:35:18;2.73;;;1.77;;
71696;SDS011;59528;59.082;37.926;2022-10-23T00:37:44;2.13;;;1.60;;
71696;SDS011;59528;59.082;37.926;2022-10-23T00:40:10;2.93;;;1.70;;
71696;SDS011;59528;59.082;37.926;2022-10-23T00:42:36;2.77;;;1.60;;
71696;SDS011;59528;59.082;37.926;2022-10-23T00:45:10;1.60;;;1.40;;
71696;SDS011;59528;59.082;37.926;2022-10-23T00:47:36;2.00;;;1.57;;
71696;SDS011;59528;59.082;37.926;2022-10-23T00:50:02;1.90;;;1.33;;
71696;SDS011;59528;59.082;37.926;2022-10-23T00:52:28;4.03;;;1.73;;
71696;SDS011;59528;59.082;37.926;2022-10-23T00:54:54;2.23;;;1.83;;
71696;SDS011;59528;59.082;37.926;2022-10-23T00:57:20;2.20;;;1.50;;
71696;SDS011;59528;59.082;37.926;2022-10-23T00:59:46;2.93;;;2.03;;
71696;SDS011;59528;59.082;37.926;2022-10-23T01:02:11;3.73;;;2.27;;
71696;SDS011;59528;59.082;37.926;2022-10-23T01:04:37;2.00;;;1.43;;
71696;SDS011;59528;59.082;37.926;2022-10-23T01:09:33;3.23;;;2.07;;
71696;SDS011;59528;59.082;37.926;2022-10-23T01:17:22;3.10;;;2.00;;
71696;SDS011;59528;59.082;37.926;2022-10-23T01:25:00;2.40;;;1.77;;
71696;SDS011;59528;59.082;37.926;2022-10-23T01:27:30;2.53;;;1.90;;
71696;SDS011;59528;59.082;37.926;2022-10-23T01:30:08;2.90;;;2.07;;
71696;SDS011;59528;59.082;37.926;2022-10-23T01:35:14;2.60;;;1.90;;
71696;SDS011;59528;59.082;37.926;2022-10-23T01:37:42;3.50;;;2.27;;
71696;SDS011;59528;59.082;37.926;2022-10-23T01:40:16;3.53;;;1.80;;
71696;SDS011;59528;59.082;37.926;2022-10-23T01:42:45;2.83;;;2.23;;
71696;SDS011;59528;59.082;37.926;2022-10-23T01:45:15;3.13;;;2.17;;
71696;SDS011;59528;59.082;37.926;2022-10-23T01:47:43;3.00;;;2.27;;
71696;SDS011;59528;59.082;37.926;2022-10-23T01:50:11;2.87;;;2.10;;
71696;SDS011;59528;59.082;37.926;2022-10-23T01:52:40;3.70;;;2.70;;
71696;SDS011;59528;59.082;37.926;2022-10-23T01:55:06;4.33;;;2.23;;
71696;SDS011;59528;59.082;37.926;2022-10-23T01:57:34;3.93;;;2.50;;
71696;SDS011;59528;59.082;37.926;2022-10-23T02:00:03;3.73;;;2.80;;
71696;SDS011;59528;59.082;37.926;2022-10-23T02:02:29;3.93;;;2.57;;
71696;SDS011;59528;59.082;37.926;2022-10-23T02:05:05;3.07;;;2.37;;
71696;SDS011;59528;59.082;37.926;2022-10-23T02:07:32;3.23;;;2.40;;
71696;SDS011;59528;59.082;37.926;2022-10-23T02:09:58;4.50;;;2.70;;
71696;SDS011;59528;59.082;37.926;2022-10-23T02:12:32;3.50;;;2.60;;
71696;SDS011;59528;59.082;37.926;2022-10-23T02:17:30;3.63;;;2.70;;
71696;SDS011;59528;59.082;37.926;2022-10-23T02:22:43;5.20;;;3.03;;
71696;SDS011;59528;59.082;37.926;2022-10-23T02:25:12;4.27;;;3.03;;
71696;SDS011;59528;59.082;37.926;2022-10-23T02:27:41;5.40;;;3.10;;
71696;SDS011;59528;59.082;37.926;2022-10-23T02:30:10;4.60;;;2.93;;
71696;SDS011;59528;59.082;37.926;2022-10-23T02:32:37;4.07;;;2.73;;
71696;SDS011;59528;59.082;37.926;2022-10-23T02:35:05;3.87;;;2.77;;
71696;SDS011;59528;59.082;37.926;2022-10-23T02:37:31;5.47;;;3.47;;
71696;SDS011;59528;59.082;37.926;2022-10-23T02:39:58;4.47;;;3.10;;
71696;SDS011;59528;59.082;37.926;2022-10-23T02:42:32;3.80;;;2.73;;
71696;SDS011;59528;59.082;37.926;2022-10-23T02:52:44;3.93;;;2.53;;
71696;SDS011;59528;59.082;37.926;2022-10-23T03:00:20;4.10;;;2.67;;
71696;SDS011;59528;59.082;37.926;2022-10-23T03:05:36;4.60;;;2.87;;
71696;SDS011;59528;59.082;37.926;2022-10-23T03:08:03;4.70;;;2.80;;
71696;SDS011;59528;59.082;37.926;2022-10-23T03:10:29;4.23;;;2.50;;
71696;SDS011;59528;59.082;37.926;2022-10-23T03:12:55;4.00;;;2.50;;
71696;SDS011;59528;59.082;37.926;2022-10-23T03:15:20;3.07;;;2.37;;
71696;SDS011;59528;59.082;37.926;2022-10-23T03:17:48;3.37;;;2.50;;
71696;SDS011;59528;59.082;37.926;2022-10-23T03:20:13;4.70;;;2.77;;
71696;SDS011;59528;59.082;37.926;2022-10-23T03:22:41;4.90;;;2.10;;
71696;SDS011;59528;59.082;37.926;2022-10-23T03:25:06;4.13;;;2.30;;
71696;SDS011;59528;59.082;37.926;2022-10-23T03:27:33;3.23;;;2.03;;
71696;SDS011;59528;59.082;37.926;2022-10-23T03:30:03;4.97;;;2.30;;
71696;SDS011;59528;59.082;37.926;2022-10-23T03:32:30;4.40;;;2.17;;
71696;SDS011;59528;59.082;37.926;2022-10-23T03:34:55;4.37;;;2.20;;
71696;SDS011;59528;59.082;37.926;2022-10-23T03:37:21;4.50;;;2.70;;
71696;SDS011;59528;59.082;37.926;2022-10-23T03:39:46;4.63;;;2.40;;
71696;SDS011;59528;59.082;37.926;2022-10-23T03:42:12;3.97;;;2.23;;
71696;SDS011;59528;59.082;37.926;2022-10-23T03:44:38;3.77;;;2.27;;
71696;SDS011;59528;59.082;37.926;2022-10-23T03:47:03;3.10;;;2.13;;
71696;SDS011;59528;59.082;37.926;2022-10-23T03:49:32;4.73;;;2.50;;
71696;SDS011;59528;59.082;37.926;2022-10-23T03:52:02;3.37;;;2.20;;
71696;SDS011;59528;59.082;37.926;2022-10-23T03:54:28;2.57;;;1.73;;
71696;SDS011;59528;59.082;37.926;2022-10-23T03:56:54;2.83;;;1.93;;
71696;SDS011;59528;59.082;37.926;2022-10-23T03:59:20;3.97;;;2.20;;
71696;SDS011;59528;59.082;37.926;2022-10-23T04:01:47;3.80;;;2.23;;
71696;SDS011;59528;59.082;37.926;2022-10-23T04:04:12;3.10;;;2.10;;
71696;SDS011;59528;59.082;37.926;2022-10-23T04:06:44;2.80;;;1.93;;
71696;SDS011;59528;59.082;37.926;2022-10-23T04:09:10;4.67;;;2.10;;
71696;SDS011;59528;59.082;37.926;2022-10-23T04:11:35;4.23;;;1.87;;
71696;SDS011;59528;59.082;37.926;2022-10-23T04:14:01;3.37;;;2.00;;
71696;SDS011;59528;59.082;37.926;2022-10-23T04:16:27;3.17;;;2.00;;
71696;SDS011;59528;59.082;37.926;2022-10-23T04:18:53;3.37;;;2.00;;
71696;SDS011;59528;59.082;37.926;2022-10-23T04:21:18;3.10;;;2.00;;
71696;SDS011;59528;59.082;37.926;2022-10-23T04:23:45;3.43;;;2.23;;
71696;SDS011;59528;59.082;37.926;2022-10-23T04:26:13;2.37;;;1.63;;
71696;SDS011;59528;59.082;37.926;2022-10-23T04:28:38;3.17;;;1.90;;
71696;SDS011;59528;59.082;37.926;2022-10-23T04:31:04;4.40;;;2.17;;
71696;SDS011;59528;59.082;37.926;2022-10-23T04:33:30;3.97;;;1.83;;
71696;SDS011;59528;59.082;37.926;2022-10-23T04:35:56;3.00;;;2.07;;
71696;SDS011;59528;59.082;37.926;2022-10-23T04:38:22;5.57;;;1.87;;
71696;SDS011;59528;59.082;37.926;2022-10-23T04:40:49;3.73;;;2.00;;
71696;SDS011;59528;59.082;37.926;2022-10-23T04:43:19;4.27;;;2.10;;
71696;SDS011;59528;59.082;37.926;2022-10-23T04:45:44;4.00;;;2.13;;
71696;SDS011;59528;59.082;37.926;2022-10-23T04:48:10;2.77;;;1.93;;
71696;SDS011;59528;59.082;37.926;2022-10-23T04:50:55;3.97;;;2.20;;
71696;SDS011;59528;59.082;37.926;2022-10-23T04:53:27;4.17;;;2.10;;
71696;SDS011;59528;59.082;37.926;2022-10-23T04:56:16;7.40;;;2.67;;
71696;SDS011;59528;59.082;37.926;2022-10-23T04:58:48;3.00;;;2.10;;
71696;SDS011;59528;59.082;37.926;2022-10-23T05:01:14;4.20;;;2.33;;
71696;SDS011;59528;59.082;37.926;2022-10-23T05:03:40;4.37;;;2.07;;
71696;SDS011;59528;59.082;37.926;2022-10-23T05:06:06;3.13;;;1.97;;
71696;SDS011;59528;59.082;37.926;2022-10-23T05:08:58;5.43;;;2.30;;
71696;SDS011;59528;59.082;37.926;2022-10-23T05:11:42;3.33;;;2.17;;
71696;SDS011;59528;59.082;37.926;2022-10-23T05:14:08;3.17;;;2.00;;
71696;SDS011;59528;59.082;37.926;2022-10-23T05:19:22;3.83;;;2.47;;
71696;SDS011;59528;59.082;37.926;2022-10-23T05:21:50;3.83;;;2.57;;
71696;SDS011;59528;59.082;37.926;2022-10-23T05:24:23;3.87;;;2.53;;
71696;SDS011;59528;59.082;37.926;2022-10-23T05:26:54;3.73;;;2.03;;
71696;SDS011;59528;59.082;37.926;2022-10-23T05:29:21;3.57;;;2.30;;
71696;SDS011;59528;59.082;37.926;2022-10-23T05:31:48;3.80;;;2.00;;
71696;SDS011;59528;59.082;37.926;2022-10-23T05:34:15;4.47;;;2.57;;
71696;SDS011;59528;59.082;37.926;2022-10-23T05:36:43;4.90;;;2.40;;
71696;SDS011;59528;59.082;37.926;2022-10-23T05:39:09;3.57;;;2.30;;
71696;SDS011;59528;59.082;37.926;2022-10-23T05:41:35;3.83;;;2.50;;
71696;SDS011;59528;59.082;37.926;2022-10-23T05:44:01;4.50;;;2.50;;
71696;SDS011;59528;59.082;37.926;2022-10-23T05:46:45;4.30;;;2.50;;
71696;SDS011;59528;59.082;37.926;2022-10-23T05:49:29;4.67;;;2.30;;
71696;SDS011;59528;59.082;37.926;2022-10-23T05:52:13;4.87;;;2.40;;
71696;SDS011;59528;59.082;37.926;2022-10-23T05:54:57;5.33;;;2.57;;
71696;SDS011;59528;59.082;37.926;2022-10-23T05:57:42;5.97;;;2.50;;
71696;SDS011;59528;59.082;37.926;2022-10-23T06:00:09;4.17;;;2.20;;
71696;SDS011;59528;59.082;37.926;2022-10-23T06:02:41;4.93;;;2.70;;
71696;SDS011;59528;59.082;37.926;2022-10-23T06:05:23;8.30;;;2.57;;
71696;SDS011;59528;59.082;37.926;2022-10-23T06:08:13;4.57;;;2.73;;
71696;SDS011;59528;59.082;37.926;2022-10-23T06:10:39;4.43;;;2.70;;
71696;SDS011;59528;59.082;37.926;2022-10-23T06:13:07;6.27;;;2.77;;
71696;SDS011;59528;59.082;37.926;2022-10-23T06:15:33;6.53;;;2.90;;
71696;SDS011;59528;59.082;37.926;2022-10-23T06:18:03;4.97;;;2.70;;
71696;SDS011;59528;59.082;37.926;2022-10-23T06:20:35;4.53;;;2.73;;
71696;SDS011;59528;59.082;37.926;2022-10-23T06:23:10;5.77;;;2.70;;
71696;SDS011;59528;59.082;37.926;2022-10-23T06:25:58;6.97;;;3.00;;
71696;SDS011;59528;59.082;37.926;2022-10-23T06:28:32;4.40;;;2.77;;
71696;SDS011;59528;59.082;37.926;2022-10-23T06:30:58;3.97;;;2.77;;
71696;SDS011;59528;59.082;37.926;2022-10-23T06:33:24;5.37;;;2.60;;
71696;SDS011;59528;59.082;37.926;2022-10-23T06:35:50;4.33;;;2.67;;
71696;SDS011;59528;59.082;37.926;2022-10-23T06:38:16;4.13;;;2.77;;
71696;SDS011;59528;59.082;37.926;2022-10-23T06:40:53;3.93;;;2.40;;
71696;SDS011;59528;59.082;37.926;2022-10-23T06:43:26;4.83;;;3.03;;
71696;SDS011;59528;59.082;37.926;2022-10-23T06:46:13;4.13;;;2.47;;
71696;SDS011;59528;59.082;37.926;2022-10-23T06:48:58;5.47;;;2.47;;
71696;SDS011;59528;59.082;37.926;2022-10-23T06:51:27;4.70;;;2.87;;
71696;SDS011;59528;59.082;37.926;2022-10-23T06:53:54;3.30;;;2.43;;
71696;SDS011;59528;59.082;37.926;2022-10-23T06:56:43;5.63;;;2.83;;
71696;SDS011;59528;59.082;37.926;2022-10-23T06:59:09;4.70;;;2.70;;
71696;SDS011;59528;59.082;37.926;2022-10-23T07:01:39;4.40;;;2.73;;
71696;SDS011;59528;59.082;37.926;2022-10-23T07:04:05;4.73;;;2.77;;
71696;SDS011;59528;59.082;37.926;2022-10-23T07:06:32;3.43;;;2.43;;
71696;SDS011;59528;59.082;37.926;2022-10-23T07:08:58;4.60;;;3.00;;
71696;SDS011;59528;59.082;37.926;2022-10-23T07:11:56;5.53;;;2.47;;
71696;SDS011;59528;59.082;37.926;2022-10-23T07:14:30;5.67;;;2.80;;
71696;SDS011;59528;59.082;37.926;2022-10-23T07:16:58;4.33;;;2.40;;
71696;SDS011;59528;59.082;37.926;2022-10-23T07:19:26;3.80;;;2.37;;
71696;SDS011;59528;59.082;37.926;2022-10-23T07:21:54;3.93;;;2.60;;
71696;SDS011;59528;59.082;37.926;2022-10-23T07:24:29;6.70;;;3.00;;
71696;SDS011;59528;59.082;37.926;2022-10-23T07:26:57;3.70;;;2.53;;
71696;SDS011;59528;59.082;37.926;2022-10-23T07:29:25;5.67;;;2.70;;
71696;SDS011;59528;59.082;37.926;2022-10-23T07:31:50;4.00;;;2.70;;
71696;SDS011;59528;59.082;37.926;2022-10-23T07:34:22;4.33;;;2.63;;
71696;SDS011;59528;59.082;37.926;2022-10-23T07:37:00;3.60;;;2.13;;
71696;SDS011;59528;59.082;37.926;2022-10-23T07:39:26;6.50;;;2.47;;
71696;SDS011;59528;59.082;37.926;2022-10-23T07:41:52;4.00;;;2.47;;
71696;SDS011;59528;59.082;37.926;2022-10-23T07:44:17;3.63;;;2.50;;
71696;SDS011;59528;59.082;37.926;2022-10-23T07:46:43;4.33;;;3.03;;
71696;SDS011;59528;59.082;37.926;2022-10-23T07:49:09;4.50;;;2.40;;
71696;SDS011;59528;59.082;37.926;2022-10-23T07:51:35;4.53;;;2.70;;
71696;SDS011;59528;59.082;37.926;2022-10-23T07:54:02;4.33;;;2.30;;
71696;SDS011;59528;59.082;37.926;2022-10-23T07:56:50;5.60;;;3.00;;
71696;SDS011;59528;59.082;37.926;2022-10-23T07:59:22;3.93;;;2.63;;
71696;SDS011;59528;59.082;37.926;2022-10-23T08:01:51;3.67;;;2.50;;
71696;SDS011;59528;59.082;37.926;2022-10-23T08:04:19;4.97;;;3.00;;
71696;SDS011;59528;59.082;37.926;2022-10-23T08:06:53;3.97;;;2.67;;
71696;SDS011;59528;59.082;37.926;2022-10-23T08:09:20;4.40;;;2.53;;
71696;SDS011;59528;59.082;37.926;2022-10-23T08:11:46;4.97;;;2.93;;
71696;SDS011;59528;59.082;37.926;2022-10-23T08:14:15;4.53;;;3.00;;
71696;SDS011;59528;59.082;37.926;2022-10-23T08:16:42;3.97;;;2.57;;
71696;SDS011;59528;59.082;37.926;2022-10-23T08:19:13;4.47;;;2.73;;
71696;SDS011;59528;59.082;37.926;2022-10-23T08:21:40;4.30;;;2.63;;
71696;SDS011;59528;59.082;37.926;2022-10-23T08:24:10;3.77;;;2.47;;
71696;SDS011;59528;59.082;37.926;2022-10-23T08:26:39;6.13;;;2.70;;
71696;SDS011;59528;59.082;37.926;2022-10-23T08:29:04;5.33;;;2.33;;
71696;SDS011;59528;59.082;37.926;2022-10-23T08:31:30;4.47;;;2.70;;
71696;SDS011;59528;59.082;37.926;2022-10-23T08:34:23;4.33;;;2.63;;
71696;SDS011;59528;59.082;37.926;2022-10-23T08:36:50;3.30;;;2.30;;
71696;SDS011;59528;59.082;37.926;2022-10-23T08:39:17;6.63;;;2.90;;
71696;SDS011;59528;59.082;37.926;2022-10-23T08:42:16;4.03;;;2.80;;
71696;SDS011;59528;59.082;37.926;2022-10-23T08:44:52;4.13;;;2.90;;
71696;SDS011;59528;59.082;37.926;2022-10-23T08:47:23;3.40;;;2.60;;
71696;SDS011;59528;59.082;37.926;2022-10-23T08:50:35;3.43;;;2.20;;
71696;SDS011;59528;59.082;37.926;2022-10-23T08:53:13;5.07;;;2.53;;
71696;SDS011;59528;59.082;37.926;2022-10-23T08:55:42;5.27;;;2.87;;
71696;SDS011;59528;59.082;37.926;2022-10-23T08:58:17;4.90;;;2.30;;
71696;SDS011;59528;59.082;37.926;2022-10-23T09:00:45;6.73;;;2.60;;
71696;SDS011;59528;59.082;37.926;2022-10-23T09:03:11;3.87;;;2.63;;
71696;SDS011;59528;59.082;37.926;2022-10-23T09:08:20;5.67;;;2.93;;
71696;SDS011;59528;59.082;37.926;2022-10-23T09:10:50;4.60;;;2.80;;
71696;SDS011;59528;59.082;37.926;2022-10-23T09:15:54;4.47;;;2.77;;
71696;SDS011;59528;59.082;37.926;2022-10-23T09:18:25;4.40;;;2.80;;
71696;SDS011;59528;59.082;37.926;2022-10-23T09:20:50;4.03;;;2.70;;
71696;SDS011;59528;59.082;37.926;2022-10-23T09:23:19;3.03;;;2.60;;
71696;SDS011;59528;59.082;37.926;2022-10-23T09:25:46;4.20;;;2.80;;
71696;SDS011;59528;59.082;37.926;2022-10-23T09:28:22;4.37;;;3.03;;
71696;SDS011;59528;59.082;37.926;2022-10-23T09:30:48;7.30;;;2.70;;
71696;SDS011;59528;59.082;37.926;2022-10-23T09:33:18;4.87;;;2.80;;
71696;SDS011;59528;59.082;37.926;2022-10-23T09:35:55;3.33;;;2.40;;
71696;SDS011;59528;59.082;37.926;2022-10-23T09:40:53;4.13;;;2.77;;
71696;SDS011;59528;59.082;37.926;2022-10-23T09:43:18;4.83;;;3.10;;
71696;SDS011;59528;59.082;37.926;2022-10-23T09:45:56;4.00;;;2.60;;
71696;SDS011;59528;59.082;37.926;2022-10-23T09:48:23;5.17;;;2.80;;
71696;SDS011;59528;59.082;37.926;2022-10-23T09:53:34;4.90;;;3.27;;
71696;SDS011;59528;59.082;37.926;2022-10-23T09:56:03;3.87;;;2.70;;
71696;SDS011;59528;59.082;37.926;2022-10-23T09:58:30;4.40;;;2.87;;
71696;SDS011;59528;59.082;37.926;2022-10-23T10:00:56;5.00;;;3.30;;
71696;SDS011;59528;59.082;37.926;2022-10-23T10:03:42;5.50;;;3.20;;
71696;SDS011;59528;59.082;37.926;2022-10-23T10:06:26;4.13;;;3.03;;
71696;SDS011;59528;59.082;37.926;2022-10-23T10:08:53;5.50;;;2.70;;
71696;SDS011;59528;59.082;37.926;2022-10-23T10:11:53;5.47;;;3.00;;
71696;SDS011;59528;59.082;37.926;2022-10-23T10:16:49;5.37;;;2.80;;
71696;SDS011;59528;59.082;37.926;2022-10-23T10:19:27;5.80;;;3.27;;
71696;SDS011;59528;59.082;37.926;2022-10-23T10:27:26;5.03;;;3.10;;
71696;SDS011;59528;59.082;37.926;2022-10-23T10:32:35;7.40;;;3.40;;
71696;SDS011;59528;59.082;37.926;2022-10-23T10:40:02;4.60;;;3.17;;
71696;SDS011;59528;59.082;37.926;2022-10-23T10:48:02;5.50;;;3.37;;
71696;SDS011;59528;59.082;37.926;2022-10-23T10:50:42;4.60;;;3.50;;
71696;SDS011;59528;59.082;37.926;2022-10-23T10:55:43;5.93;;;3.30;;
71696;SDS011;59528;59.082;37.926;2022-10-23T11:00:58;3.87;;;3.00;;
71696;SDS011;59528;59.082;37.926;2022-10-23T11:05:57;5.67;;;3.40;;
71696;SDS011;59528;59.082;37.926;2022-10-23T11:11:38;5.47;;;3.13;;
71696;SDS011;59528;59.082;37.926;2022-10-23T11:14:05;6.77;;;3.07;;
71696;SDS011;59528;59.082;37.926;2022-10-23T11:16:33;6.00;;;3.07;;
71696;SDS011;59528;59.082;37.926;2022-10-23T11:19:10;6.07;;;3.10;;
71696;SDS011;59528;59.082;37.926;2022-10-23T11:29:52;5.37;;;3.30;;
71696;SDS011;59528;59.082;37.926;2022-10-23T11:37:14;6.53;;;3.27;;
71696;SDS011;59528;59.082;37.926;2022-10-23T11:39:40;5.53;;;3.30;;
71696;SDS011;59528;59.082;37.926;2022-10-23T11:42:14;5.83;;;3.60;;
71696;SDS011;59528;59.082;37.926;2022-10-23T11:44:41;5.17;;;3.20;;
71696;SDS011;59528;59.082;37.926;2022-10-23T11:52:37;5.00;;;3.50;;
71696;SDS011;59528;59.082;37.926;2022-10-23T11:55:14;5.70;;;3.47;;
71696;SDS011;59528;59.082;37.926;2022-10-23T11:57:40;9.53;;;3.60;;
71696;SDS011;59528;59.082;37.926;2022-10-23T12:00:21;7.63;;;3.43;;
71696;SDS011;59528;59.082;37.926;2022-10-23T12:02:51;6.37;;;3.70;;
71696;SDS011;59528;59.082;37.926;2022-10-23T12:05:34;4.60;;;3.60;;
71696;SDS011;59528;59.082;37.926;2022-10-23T12:08:02;7.03;;;3.83;;
71696;SDS011;59528;59.082;37.926;2022-10-23T12:10:33;4.93;;;3.40;;
71696;SDS011;59528;59.082;37.926;2022-10-23T12:13:03;6.80;;;3.77;;
71696;SDS011;59528;59.082;37.926;2022-10-23T12:15:30;5.27;;;3.40;;
71696;SDS011;59528;59.082;37.926;2022-10-23T12:18:14;6.80;;;3.77;;
71696;SDS011;59528;59.082;37.926;2022-10-23T12:20:43;6.83;;;3.80;;
71696;SDS011;59528;59.082;37.926;2022-10-23T12:23:14;6.67;;;3.77;;
71696;SDS011;59528;59.082;37.926;2022-10-23T12:35:56;3.50;;;2.73;;
71696;SDS011;59528;59.082;37.926;2022-10-23T12:38:26;7.57;;;3.70;;
71696;SDS011;59528;59.082;37.926;2022-10-23T12:40:59;7.87;;;4.03;;
71696;SDS011;59528;59.082;37.926;2022-10-23T12:43:26;5.57;;;3.47;;
71696;SDS011;59528;59.082;37.926;2022-10-23T12:45:53;6.03;;;3.97;;
71696;SDS011;59528;59.082;37.926;2022-10-23T12:48:20;6.57;;;3.90;;
71696;SDS011;59528;59.082;37.926;2022-10-23T12:50:50;6.00;;;3.67;;
71696;SDS011;59528;59.082;37.926;2022-10-23T12:53:17;6.50;;;3.53;;
71696;SDS011;59528;59.082;37.926;2022-10-23T12:55:47;4.83;;;3.50;;
71696;SDS011;59528;59.082;37.926;2022-10-23T12:58:21;5.03;;;3.30;;
71696;SDS011;59528;59.082;37.926;2022-10-23T13:00:49;6.50;;;3.20;;
71696;SDS011;59528;59.082;37.926;2022-10-23T13:03:15;8.47;;;3.87;;
71696;SDS011;59528;59.082;37.926;2022-10-23T13:05:41;8.77;;;3.90;;
71696;SDS011;59528;59.082;37.926;2022-10-23T13:08:07;6.63;;;4.00;;
71696;SDS011;59528;59.082;37.926;2022-10-23T13:10:46;5.30;;;4.03;;
71696;SDS011;59528;59.082;37.926;2022-10-23T13:13:17;7.37;;;3.97;;
71696;SDS011;59528;59.082;37.926;2022-10-23T13:15:44;9.40;;;4.70;;
71696;SDS011;59528;59.082;37.926;2022-10-23T13:18:11;7.20;;;3.90;;
71696;SDS011;59528;59.082;37.926;2022-10-23T13:20:42;7.57;;;3.50;;
71696;SDS011;59528;59.082;37.926;2022-10-23T13:25:53;6.33;;;4.00;;
71696;SDS011;59528;59.082;37.926;2022-10-23T13:33:43;6.60;;;3.80;;
71696;SDS011;59528;59.082;37.926;2022-10-23T13:38:42;5.83;;;3.50;;
71696;SDS011;59528;59.082;37.926;2022-10-23T13:41:18;8.33;;;4.13;;
71696;SDS011;59528;59.082;37.926;2022-10-23T13:43:45;5.30;;;3.47;;
71696;SDS011;59528;59.082;37.926;2022-10-23T13:46:21;5.33;;;3.70;;
71696;SDS011;59528;59.082;37.926;2022-10-23T13:48:47;8.80;;;3.73;;
71696;SDS011;59528;59.082;37.926;2022-10-23T13:53:39;5.03;;;3.70;;
71696;SDS011;59528;59.082;37.926;2022-10-23T13:56:05;8.17;;;3.73;;
71696;SDS011;59528;59.082;37.926;2022-10-23T13:58:30;7.03;;;3.60;;
71696;SDS011;59528;59.082;37.926;2022-10-23T14:00:56;7.67;;;3.80;;
71696;SDS011;59528;59.082;37.926;2022-10-23T14:03:22;5.67;;;4.23;;
71696;SDS011;59528;59.082;37.926;2022-10-23T14:05:51;6.97;;;3.97;;
71696;SDS011;59528;59.082;37.926;2022-10-23T14:08:17;6.33;;;3.70;;
71696;SDS011;59528;59.082;37.926;2022-10-23T14:10:43;7.20;;;3.90;;
71696;SDS011;59528;59.082;37.926;2022-10-23T14:13:09;8.10;;;3.80;;
71696;SDS011;59528;59.082;37.926;2022-10-23T14:15:34;7.13;;;3.70;;
71696;SDS011;59528;59.082;37.926;2022-10-23T14:18:00;6.00;;;3.80;;
71696;SDS011;59528;59.082;37.926;2022-10-23T14:20:26;7.80;;;3.87;;
71696;SDS011;59528;59.082;37.926;2022-10-23T14:22:52;7.47;;;4.10;;
71696;SDS011;59528;59.082;37.926;2022-10-23T14:25:18;8.23;;;4.00;;
71696;SDS011;59528;59.082;37.926;2022-10-23T14:27:43;7.93;;;3.70;;
71696;SDS011;59528;59.082;37.926;2022-10-23T14:30:09;6.83;;;4.03;;
71696;SDS011;59528;59.082;37.926;2022-10-23T14:32:35;6.63;;;3.90;;
71696;SDS011;59528;59.082;37.926;2022-10-23T14:35:00;6.63;;;4.47;;
71696;SDS011;59528;59.082;37.926;2022-10-23T14:37:29;7.93;;;4.10;;
71696;SDS011;59528;59.082;37.926;2022-10-23T14:39:55;8.93;;;4.47;;
71696;SDS011;59528;59.082;37.926;2022-10-23T14:42:21;8.87;;;4.63;;
71696;SDS011;59528;59.082;37.926;2022-10-23T14:44:47;6.43;;;3.80;;
71696;SDS011;59528;59.082;37.926;2022-10-23T14:47:14;7.73;;;4.27;;
71696;SDS011;59528;59.082;37.926;2022-10-23T14:49:41;7.10;;;4.33;;
71696;SDS011;59528;59.082;37.926;2022-10-23T14:52:07;5.17;;;3.63;;
71696;SDS011;59528;59.082;37.926;2022-10-23T14:54:33;6.40;;;4.10;;
71696;SDS011;59528;59.082;37.926;2022-10-23T14:57:01;5.77;;;4.00;;
71696;SDS011;59528;59.082;37.926;2022-10-23T14:59:26;9.97;;;4.60;;
71696;SDS011;59528;59.082;37.926;2022-10-23T15:01:52;6.73;;;4.30;;
71696;SDS011;59528;59.082;37.926;2022-10-23T15:04:18;8.40;;;4.00;;
71696;SDS011;59528;59.082;37.926;2022-10-23T15:06:44;6.43;;;3.80;;
71696;SDS011;59528;59.082;37.926;2022-10-23T15:09:11;4.80;;;3.57;;
71696;SDS011;59528;59.082;37.926;2022-10-23T15:11:37;5.50;;;3.73;;
71696;SDS011;59528;59.082;37.926;2022-10-23T15:14:04;8.00;;;4.00;;
71696;SDS011;59528;59.082;37.926;2022-10-23T15:16:30;6.23;;;3.57;;
71696;SDS011;59528;59.082;37.926;2022-10-23T15:18:56;8.57;;;3.57;;
71696;SDS011;59528;59.082;37.926;2022-10-23T15:21:21;8.63;;;3.60;;
71696;SDS011;59528;59.082;37.926;2022-10-23T15:23:47;6.37;;;3.93;;
71696;SDS011;59528;59.082;37.926;2022-10-23T15:26:14;9.97;;;3.70;;
71696;SDS011;59528;59.082;37.926;2022-10-23T15:28:44;5.97;;;3.20;;
71696;SDS011;59528;59.082;37.926;2022-10-23T15:34:09;5.80;;;3.37;;
71696;SDS011;59528;59.082;37.926;2022-10-23T15:36:35;5.20;;;3.77;;
71696;SDS011;59528;59.082;37.926;2022-10-23T15:39:01;4.50;;;3.50;;
71696;SDS011;59528;59.082;37.926;2022-10-23T15:41:28;5.07;;;3.23;;
71696;SDS011;59528;59.082;37.926;2022-10-23T15:43:54;6.43;;;3.47;;
71696;SDS011;59528;59.082;37.926;2022-10-23T15:46:20;4.77;;;3.17;;
71696;SDS011;59528;59.082;37.926;2022-10-23T15:48:45;5.20;;;3.23;;
71696;SDS011;59528;59.082;37.926;2022-10-23T15:51:11;6.97;;;3.53;;
71696;SDS011;59528;59.082;37.926;2022-10-23T15:53:36;7.30;;;3.17;;
71696;SDS011;59528;59.082;37.926;2022-10-23T15:56:02;5.70;;;3.30;;
71696;SDS011;59528;59.082;37.926;2022-10-23T15:58:28;7.80;;;3.37;;
71696;SDS011;59528;59.082;37.926;2022-10-23T16:00:53;6.73;;;3.27;;
71696;SDS011;59528;59.082;37.926;2022-10-23T16:03:19;5.00;;;3.03;;
71696;SDS011;59528;59.082;37.926;2022-10-23T16:05:45;4.53;;;3.37;;
71696;SDS011;59528;59.082;37.926;2022-10-23T16:08:12;5.33;;;3.30;;
71696;SDS011;59528;59.082;37.926;2022-10-23T16:10:38;6.27;;;3.40;;
71696;SDS011;59528;59.082;37.926;2022-10-23T16:13:04;4.20;;;3.23;;
71696;SDS011;59528;59.082;37.926;2022-10-23T16:15:30;6.23;;;3.00;;
71696;SDS011;59528;59.082;37.926;2022-10-23T16:17:55;4.33;;;3.07;;
71696;SDS011;59528;59.082;37.926;2022-10-23T16:20:21;4.83;;;3.00;;
71696;SDS011;59528;59.082;37.926;2022-10-23T16:22:47;6.10;;;3.00;;
71696;SDS011;59528;59.082;37.926;2022-10-23T16:25:13;5.83;;;3.00;;
71696;SDS011;59528;59.082;37.926;2022-10-23T16:27:39;7.73;;;3.43;;
71696;SDS011;59528;59.082;37.926;2022-10-23T16:30:05;5.17;;;3.37;;
71696;SDS011;59528;59.082;37.926;2022-10-23T16:32:34;4.43;;;3.30;;
71696;SDS011;59528;59.082;37.926;2022-10-23T16:35:00;4.47;;;2.80;;
71696;SDS011;59528;59.082;37.926;2022-10-23T16:37:33;5.10;;;2.87;;
71696;SDS011;59528;59.082;37.926;2022-10-23T16:40:04;8.10;;;3.27;;
71696;SDS011;59528;59.082;37.926;2022-10-23T16:42:53;5.67;;;3.47;;
71696;SDS011;59528;59.082;37.926;2022-10-23T16:45:39;4.30;;;2.87;;
71696;SDS011;59528;59.082;37.926;2022-10-23T16:48:04;5.03;;;3.00;;
71696;SDS011;59528;59.082;37.926;2022-10-23T16:50:30;4.93;;;3.07;;
71696;SDS011;59528;59.082;37.926;2022-10-23T16:52:56;7.50;;;3.47;;